Time;durP1;ratioP1;P1;durP2;ratioP2;P2;SDS_P1;SDS_P2;PMS_P1;PMS_P2;Temp;Humidity;BMP_temperature;BMP_pressure;BME280_temperature;BME280_humidity;BME280_pressure;Samples;Min_cycle;Max_cycle;Signal;HPM_P1;HPM_P2
2022/12/22 03:26:34;;;;;;;15.10;4.80;;;;;;;3.76;99.06;99774.41;103405;1288;22489;-56
2022/12/22 03:29:05;;;;;;;13.70;5.40;;;;;;;3.79;99.07;99771.70;103536;1305;22473;-58
2022/12/22 03:31:37;;;;;;;16.30;5.30;;;;;;;3.81;98.98;99766.17;103596;1306;24229;-58
2022/12/22 03:34:11;;;;;;;17.20;6.20;;;;;;;3.83;99.03;99769.12;103481;1288;22421;-59
2022/12/22 03:36:42;;;;;;;20.30;7.40;;;;;;;3.84;98.96;99770.65;103639;1306;25679;-60
2022/12/22 03:39:13;;;;;;;19.00;8.30;;;;;;;3.85;98.96;99767.77;103557;1281;25370;-61
2022/12/22 03:47:25;;;;;;;13.30;4.60;;;;;;;3.89;99.09;99757.95;103409;1307;24449;-59
2022/12/22 03:49:56;;;;;;;13.60;4.20;;;;;;;3.89;99.26;99751.70;103502;1282;24251;-61
2022/12/22 03:52:28;;;;;;;12.50;4.10;;;;;;;3.91;99.31;99752.66;103526;1310;22408;-59
2022/12/22 03:55:00;;;;;;;11.60;3.70;;;;;;;3.93;99.31;99752.52;103619;1307;24290;-59
2022/12/22 03:57:31;;;;;;;13.00;3.90;;;;;;;3.95;99.47;99750.64;103707;1281;22484;-59
2022/12/22 04:00:05;;;;;;;16.20;4.90;;;;;;;3.97;99.38;99751.30;103503;1310;25923;-60
2022/12/22 04:02:37;;;;;;;13.20;4.40;;;;;;;3.97;99.37;99749.23;103624;1284;22469;-60
2022/12/22 04:05:10;;;;;;;14.30;4.10;;;;;;;3.98;99.30;99748.19;103397;1296;24394;-59
2022/12/22 04:07:41;;;;;;;16.10;5.80;;;;;;;3.98;99.42;99742.08;103551;1311;23887;-58
2022/12/22 04:13:03;;;;;;;29.30;14.50;;;;;;;4.03;99.70;99738.92;103726;1304;22478;-59
2022/12/22 04:15:34;;;;;;;32.60;18.50;;;;;;;4.05;99.78;99742.17;103706;1282;22477;-59
2022/12/22 04:18:11;;;;;;;29.50;16.70;;;;;;;4.07;99.82;99737.29;103422;1307;22459;-60
2022/12/22 04:20:45;;;;;;;28.70;17.20;;;;;;;4.11;100.00;99736.62;103427;1281;24270;-59
2022/12/22 04:23:17;;;;;;;26.60;13.60;;;;;;;4.15;100.00;99733.95;103419;1306;22469;-58
2022/12/22 04:25:48;;;;;;;35.30;19.50;;;;;;;4.19;100.00;99741.00;103345;1307;22501;-60
2022/12/22 04:28:26;;;;;;;38.80;25.20;;;;;;;4.21;100.00;99737.67;103445;1283;25385;-61
2022/12/22 04:30:57;;;;;;;38.20;23.10;;;;;;;4.24;99.98;99733.40;103562;1310;22478;-59
2022/12/22 04:33:28;;;;;;;31.10;15.00;;;;;;;4.27;100.00;99728.64;103616;1280;22473;-59
2022/12/22 04:36:00;;;;;;;30.10;17.80;;;;;;;4.30;100.00;99732.52;103606;1281;25276;-59
2022/12/22 04:38:32;;;;;;;25.50;12.90;;;;;;;4.33;99.99;99734.34;103523;1280;22442;-61
2022/12/22 04:41:03;;;;;;;24.10;11.10;;;;;;;4.35;99.98;99727.16;103466;1288;22466;-59
2022/12/22 04:43:35;;;;;;;18.50;7.30;;;;;;;4.36;99.96;99720.63;103462;1302;22617;-59
2022/12/22 04:46:07;;;;;;;19.90;9.30;;;;;;;4.37;99.96;99714.58;103490;1306;25148;-61
2022/12/22 04:48:38;;;;;;;19.40;9.20;;;;;;;4.39;99.93;99710.91;103516;1312;25026;-57
2022/12/22 04:51:10;;;;;;;19.80;9.90;;;;;;;4.39;99.87;99704.25;103511;1306;25279;-59
2022/12/22 04:53:42;;;;;;;28.10;12.30;;;;;;;4.40;99.75;99699.82;103372;1288;25258;-58
2022/12/22 04:56:13;;;;;;;30.20;15.80;;;;;;;4.39;99.70;99694.89;103229;1281;22475;-59
2022/12/22 04:58:44;;;;;;;28.00;15.00;;;;;;;4.39;99.80;99696.00;103254;1283;22580;-61
2022/12/22 05:01:18;;;;;;;26.20;13.60;;;;;;;4.39;99.83;99691.79;103206;1291;22567;-56
2022/12/22 05:03:49;;;;;;;20.70;9.00;;;;;;;4.39;99.84;99693.36;103367;1304;22595;-58
2022/12/22 05:06:22;;;;;;;18.00;6.90;;;;;;;4.40;99.93;99696.59;103373;1281;22457;-58
2022/12/22 05:08:55;;;;;;;16.90;5.70;;;;;;;4.41;99.99;99698.81;103379;1288;24258;-56
2022/12/22 05:11:27;;;;;;;14.20;5.60;;;;;;;4.42;100.00;99702.81;103421;1283;22483;-58
2022/12/22 05:13:59;;;;;;;20.50;6.60;;;;;;;4.45;100.00;99704.86;103388;1281;25330;-56
2022/12/22 05:16:30;;;;;;;17.50;6.60;;;;;;;4.47;100.00;99715.13;103273;1288;22462;-59
2022/12/22 05:19:02;;;;;;;18.10;6.00;;;;;;;4.48;100.00;99711.05;103342;1281;24023;-58
2022/12/22 05:21:34;;;;;;;16.60;5.40;;;;;;;4.50;100.00;99709.70;103474;1282;24279;-60
2022/12/22 05:24:07;;;;;;;19.00;6.20;;;;;;;4.52;100.00;99705.05;103346;1298;24372;-59
2022/12/22 05:26:39;;;;;;;16.70;6.30;;;;;;;4.54;100.00;99695.67;103122;1288;24630;-58
2022/12/22 05:29:10;;;;;;;16.40;5.90;;;;;;;4.54;100.00;99698.25;103208;1283;26429;-59
2022/12/22 05:31:41;;;;;;;16.90;5.90;;;;;;;4.55;100.00;99696.63;103205;1284;26619;-60
2022/12/22 05:34:16;;;;;;;14.70;5.70;;;;;;;4.57;100.00;99697.27;103328;1306;22477;-59
2022/12/22 05:36:47;;;;;;;18.60;7.10;;;;;;;4.58;100.00;99683.81;103326;1282;25882;-59
2022/12/22 05:39:18;;;;;;;13.40;4.90;;;;;;;4.59;100.00;99677.05;103282;1275;25312;-59
2022/12/22 05:41:51;;;;;;;15.30;5.90;;;;;;;4.61;100.00;99671.17;103631;1289;22479;-59
2022/12/22 05:44:23;;;;;;;17.80;6.30;;;;;;;4.63;100.00;99661.05;102976;1282;22470;-60
2022/12/22 05:46:54;;;;;;;16.40;5.20;;;;;;;4.65;100.00;99663.55;103058;1275;24439;-57
2022/12/22 05:49:26;;;;;;;19.90;7.10;;;;;;;4.68;100.00;99662.59;104020;1283;22463;-58
2022/12/22 05:51:58;;;;;;;15.30;5.60;;;;;;;4.71;100.00;99661.85;103986;1306;22518;-58
2022/12/22 05:54:30;;;;;;;20.30;7.00;;;;;;;4.73;100.00;99669.81;103260;1282;22496;-59
2022/12/22 05:57:01;;;;;;;20.70;7.20;;;;;;;4.76;100.00;99669.61;103279;1282;24324;-57
2022/12/22 05:59:33;;;;;;;19.70;7.70;;;;;;;4.79;100.00;99668.09;103102;1297;22462;-61
2022/12/22 06:02:04;;;;;;;16.90;6.30;;;;;;;4.81;100.00;99663.02;102953;1282;22462;-59
2022/12/22 06:04:36;;;;;;;20.00;7.70;;;;;;;4.84;100.00;99659.61;103222;1282;24440;-59
2022/12/22 06:07:08;;;;;;;21.30;7.70;;;;;;;4.86;100.00;99655.71;103204;1307;25283;-59
2022/12/22 06:09:39;;;;;;;24.00;8.60;;;;;;;4.87;100.00;99646.66;103109;1307;22466;-59
2022/12/22 06:12:11;;;;;;;22.80;8.70;;;;;;;4.89;100.00;99643.35;103079;1289;25405;-64
2022/12/22 06:14:42;;;;;;;23.00;9.00;;;;;;;4.91;100.00;99640.80;103192;1305;22464;-65
2022/12/22 06:17:16;;;;;;;21.20;8.30;;;;;;;4.95;100.00;99643.19;103105;1282;22607;-64
2022/12/22 06:19:48;;;;;;;20.50;8.10;;;;;;;4.99;100.00;99642.98;103081;1306;24324;-59
2022/12/22 06:22:20;;;;;;;19.40;7.30;;;;;;;5.01;100.00;99640.69;102954;1281;25203;-68
2022/12/22 06:24:51;;;;;;;21.40;8.70;;;;;;;5.02;100.00;99642.99;104427;1306;22462;-62
2022/12/22 06:27:22;;;;;;;20.50;8.00;;;;;;;5.04;100.00;99649.15;103037;1282;22482;-59
2022/12/22 06:29:54;;;;;;;23.60;8.90;;;;;;;5.07;100.00;99649.53;103050;1282;22466;-61
2022/12/22 06:32:27;;;;;;;21.40;8.10;;;;;;;5.09;100.00;99645.91;103087;1282;22523;-59
2022/12/22 06:34:59;;;;;;;24.70;9.40;;;;;;;5.10;100.00;99643.94;103057;1301;22498;-58
2022/12/22 06:37:30;;;;;;;22.80;8.90;;;;;;;5.13;100.00;99641.07;103018;1281;22476;-59
2022/12/22 06:40:03;;;;;;;24.70;9.90;;;;;;;5.14;100.00;99633.02;103223;1300;22830;-60
2022/12/22 06:45:24;;;;;;;20.20;7.50;;;;;;;5.19;100.00;99633.78;103041;1274;22513;-60
2022/12/22 06:47:56;;;;;;;19.30;7.50;;;;;;;5.22;100.00;99640.23;103021;1305;25422;-60
2022/12/22 06:50:29;;;;;;;19.40;8.10;;;;;;;5.24;100.00;99632.40;103002;1288;22896;-59
2022/12/22 06:53:01;;;;;;;23.00;10.50;;;;;;;5.27;100.00;99634.80;103129;1282;22531;-60
2022/12/22 06:55:32;;;;;;;24.00;10.10;;;;;;;5.29;100.00;99635.58;103055;1306;22592;-59
2022/12/22 06:58:03;;;;;;;24.80;9.70;;;;;;;5.31;100.00;99633.58;103118;1306;25602;-60
2022/12/22 07:00:36;;;;;;;24.70;10.00;;;;;;;5.32;100.00;99635.59;103020;1306;22478;-59
2022/12/22 07:03:07;;;;;;;22.10;9.10;;;;;;;5.32;100.00;99632.38;103156;1297;24434;-59
2022/12/22 07:05:39;;;;;;;22.90;9.30;;;;;;;5.32;100.00;99627.77;103064;1305;22480;-59
2022/12/22 07:08:10;;;;;;;22.40;7.80;;;;;;;5.32;100.00;99623.98;103218;1305;22592;-59
2022/12/22 07:11:00;;;;;;;18.40;7.90;;;;;;;5.33;100.00;99623.88;103235;1305;23004;-60
2022/12/22 07:13:35;;;;;;;16.90;6.70;;;;;;;5.33;100.00;99618.26;103013;1299;23191;-59
2022/12/22 07:16:09;;;;;;;20.80;8.80;;;;;;;5.33;100.00;99612.33;103193;1298;24393;-59
2022/12/22 07:18:42;;;;;;;20.60;9.30;;;;;;;5.32;100.00;99608.64;103068;1307;22466;-60
2022/12/22 07:21:14;;;;;;;19.40;6.90;;;;;;;5.31;100.00;99607.96;103213;1306;26791;-59
2022/12/22 07:23:45;;;;;;;20.40;7.90;;;;;;;5.28;100.00;99603.04;103174;1307;24277;-60
2022/12/22 07:26:17;;;;;;;17.50;6.50;;;;;;;5.25;100.00;99600.54;103072;1281;22477;-59
2022/12/22 07:28:48;;;;;;;19.10;6.70;;;;;;;5.22;100.00;99595.77;103179;1283;23671;-60
2022/12/22 07:31:20;;;;;;;18.50;7.50;;;;;;;5.20;99.99;99590.23;103125;1282;22558;-59
2022/12/22 07:33:52;;;;;;;18.00;6.60;;;;;;;5.18;100.00;99587.96;103088;1306;25354;-60
2022/12/22 07:36:24;;;;;;;17.70;6.90;;;;;;;5.17;99.96;99583.29;103131;1281;24244;-57
2022/12/22 07:38:56;;;;;;;22.20;7.20;;;;;;;5.14;99.96;99586.06;103030;1275;25233;-59
2022/12/22 07:44:17;;;;;;;19.30;7.40;;;;;;;5.10;99.79;99583.02;103058;1281;22513;-60
2022/12/22 07:46:49;;;;;;;17.50;6.90;;;;;;;5.06;99.73;99584.27;103156;1281;22503;-59
2022/12/22 07:52:09;;;;;;;22.20;9.40;;;;;;;5.00;99.57;99576.14;103089;1283;24136;-59
2022/12/22 07:54:41;;;;;;;20.20;8.00;;;;;;;4.99;99.61;99575.46;103175;1305;22629;-60
2022/12/22 07:57:12;;;;;;;21.00;8.20;;;;;;;4.98;99.63;99570.45;103014;1282;22529;-60
2022/12/22 07:59:44;;;;;;;21.50;9.30;;;;;;;4.97;99.46;99567.34;103140;1282;22620;-58
2022/12/22 08:02:15;;;;;;;25.60;9.50;;;;;;;4.97;99.49;99563.00;103063;1306;22475;-60
2022/12/22 08:04:46;;;;;;;24.30;9.50;;;;;;;4.97;99.70;99556.58;103150;1281;22462;-61
2022/12/22 08:07:20;;;;;;;25.10;10.10;;;;;;;4.96;99.52;99563.84;103203;1306;22479;-60
2022/12/22 08:09:52;;;;;;;25.20;10.70;;;;;;;4.95;99.41;99562.20;103082;1306;22481;-59
2022/12/22 08:12:24;;;;;;;25.30;11.50;;;;;;;4.94;99.43;99556.39;103238;1282;22463;-59
2022/12/22 08:14:55;;;;;;;24.00;10.50;;;;;;;4.94;99.21;99555.69;103163;1298;24231;-59
2022/12/22 08:17:28;;;;;;;24.40;10.70;;;;;;;4.91;99.00;99551.75;102994;1306;22476;-60
2022/12/22 08:19:59;;;;;;;23.20;10.20;;;;;;;4.89;98.98;99555.15;103173;1275;22609;-60
2022/12/22 08:22:33;;;;;;;26.70;11.20;;;;;;;4.88;98.97;99550.95;103090;1306;27743;-60
2022/12/22 08:25:06;;;;;;;25.60;10.20;;;;;;;4.86;98.84;99545.98;103183;1299;22486;-62
2022/12/22 08:27:42;;;;;;;27.20;12.00;;;;;;;4.82;98.75;99547.59;103115;1306;25377;-59
2022/12/22 08:30:14;;;;;;;26.40;11.50;;;;;;;4.81;98.62;99547.76;102974;1305;22503;-59
2022/12/22 08:32:49;;;;;;;26.80;11.20;;;;;;;4.79;98.62;99546.58;103090;1282;25229;-60
2022/12/22 08:35:21;;;;;;;26.80;13.10;;;;;;;4.78;98.66;99543.94;103135;1305;22512;-61
2022/12/22 08:37:53;;;;;;;29.60;14.10;;;;;;;4.76;98.57;99544.17;103084;1304;25337;-61
2022/12/22 08:40:28;;;;;;;28.30;13.30;;;;;;;4.74;98.64;99538.73;103113;1281;26543;-60
2022/12/22 08:43:03;;;;;;;38.20;15.80;;;;;;;4.72;98.46;99533.73;103177;1280;25403;-63
2022/12/22 08:45:34;;;;;;;34.60;14.30;;;;;;;4.70;98.61;99529.31;103116;1306;23342;-60
2022/12/22 08:48:07;;;;;;;30.40;14.30;;;;;;;4.70;98.59;99525.91;103068;1274;25355;-59
2022/12/22 08:50:38;;;;;;;31.00;14.10;;;;;;;4.72;98.71;99520.58;103120;1306;22468;-61
2022/12/22 08:53:11;;;;;;;32.80;15.60;;;;;;;4.71;98.68;99519.46;103225;1281;22426;-61
2022/12/22 08:55:50;;;;;;;31.10;14.30;;;;;;;4.73;98.78;99515.84;103212;1306;22485;-61
2022/12/22 08:58:22;;;;;;;29.20;12.80;;;;;;;4.74;98.66;99514.05;103171;1305;22484;-60
2022/12/22 09:00:54;;;;;;;29.50;14.30;;;;;;;4.75;98.75;99519.41;103080;1306;22481;-62
2022/12/22 09:03:25;;;;;;;31.40;13.00;;;;;;;4.77;98.76;99520.42;103057;1305;24313;-57
2022/12/22 09:06:02;;;;;;;33.50;14.40;;;;;;;4.80;98.90;99519.83;103024;1306;23758;-62
2022/12/22 09:08:33;;;;;;;28.70;14.00;;;;;;;4.86;99.10;99518.17;102948;1306;27529;-58
2022/12/22 09:11:06;;;;;;;34.60;14.80;;;;;;;4.89;99.24;99516.89;103224;1282;24937;-61
2022/12/22 09:13:38;;;;;;;33.30;15.90;;;;;;;4.96;99.29;99520.14;103284;1282;22492;-60
2022/12/22 09:16:10;;;;;;;34.10;15.20;;;;;;;5.03;99.46;99520.23;103135;1282;22471;-59
2022/12/22 09:18:42;;;;;;;30.60;14.40;;;;;;;5.11;99.58;99517.82;103222;1303;22499;-61
2022/12/22 09:21:15;;;;;;;31.40;14.80;;;;;;;5.19;99.59;99518.98;103134;1281;22695;-63
2022/12/22 09:23:49;;;;;;;30.20;12.60;;;;;;;5.29;99.54;99516.90;103236;1306;22496;-62
2022/12/22 09:26:22;;;;;;;32.20;13.20;;;;;;;5.36;99.39;99521.66;103284;1301;22500;-62
2022/12/22 09:28:54;;;;;;;27.30;12.70;;;;;;;5.43;99.30;99510.36;103156;1275;22825;-59
2022/12/22 09:31:27;;;;;;;30.30;12.80;;;;;;;5.47;99.13;99507.40;103230;1282;25485;-61
2022/12/22 09:33:58;;;;;;;26.20;11.20;;;;;;;5.51;98.96;99500.19;103233;1289;24310;-59
2022/12/22 09:36:32;;;;;;;30.60;14.30;;;;;;;5.55;98.93;99489.96;103261;1288;22472;-61
2022/12/22 09:39:08;;;;;;;42.00;19.30;;;;;;;5.58;98.78;99491.47;103035;1304;22478;-60
2022/12/22 09:41:46;;;;;;;37.70;18.00;;;;;;;5.63;98.86;99486.86;103258;1282;22470;-66
2022/12/22 09:44:26;;;;;;;36.80;15.70;;;;;;;5.68;98.85;99483.36;103365;1281;22583;-59
2022/12/22 09:47:01;;;;;;;28.30;12.80;;;;;;;5.73;98.82;99477.42;103221;1306;24264;-61
2022/12/22 09:49:33;;;;;;;26.30;11.50;;;;;;;5.78;98.63;99483.98;103171;1282;22479;-60
2022/12/22 09:52:07;;;;;;;28.30;11.50;;;;;;;5.82;98.84;99473.16;103185;1291;24459;-60
2022/12/22 09:54:39;;;;;;;25.20;11.00;;;;;;;5.87;98.88;99461.02;103434;1299;23089;-61
2022/12/22 09:57:13;;;;;;;28.40;13.10;;;;;;;5.92;98.88;99458.56;103129;1282;22583;-61
2022/12/22 09:59:45;;;;;;;30.80;13.90;;;;;;;5.96;98.71;99452.98;103372;1282;26479;-61
2022/12/22 10:02:28;;;;;;;29.70;13.70;;;;;;;6.00;98.64;99457.63;103289;1274;22462;-61
2022/12/22 10:05:19;;;;;;;27.80;12.20;;;;;;;6.04;98.58;99446.52;103158;1306;22488;-60
2022/12/22 10:07:49;;;;;;;;;;;;;;;6.07;98.60;99444.42;103184;1306;22455;-61
2022/12/22 10:10:26;;;;;;;21.40;8.30;;;;;;;6.09;98.68;99436.02;103240;1282;25395;-59
2022/12/22 10:12:59;;;;;;;21.60;8.10;;;;;;;6.12;98.69;99432.36;103249;1282;22472;-61
2022/12/22 10:15:37;;;;;;;17.50;6.00;;;;;;;6.17;98.78;99422.61;103433;1297;22826;-61
2022/12/22 10:18:15;;;;;;;17.80;5.70;;;;;;;6.23;98.76;99419.77;103310;1298;24449;-63
2022/12/22 10:20:48;;;;;;;17.50;5.80;;;;;;;6.31;98.70;99419.90;103378;1290;26751;-60
2022/12/22 10:23:21;;;;;;;16.00;5.40;;;;;;;6.37;98.68;99420.70;103207;1282;25393;-60
2022/12/22 10:26:07;;;;;;;16.60;6.20;;;;;;;6.44;98.56;99419.86;103288;1275;25222;-60
2022/12/22 10:28:44;;;;;;;19.20;6.40;;;;;;;6.52;98.50;99416.94;103254;1288;22540;-61
2022/12/22 10:31:25;;;;;;;20.20;6.20;;;;;;;6.59;98.46;99412.40;103212;1284;23359;-61
2022/12/22 10:34:09;;;;;;;18.20;5.60;;;;;;;6.64;98.24;99411.66;103144;1298;22488;-60
2022/12/22 10:36:43;;;;;;;19.20;5.80;;;;;;;6.69;98.24;99408.08;103465;1299;22581;-61
2022/12/22 10:39:23;;;;;;;18.70;6.50;;;;;;;6.74;98.36;99412.10;103246;1305;25328;-61
2022/12/22 10:42:00;;;;;;;18.40;6.60;;;;;;;6.78;98.34;99406.90;103237;1282;22475;-63
2022/12/22 10:44:34;;;;;;;18.50;7.10;;;;;;;6.83;98.34;99402.46;103187;1304;25594;-60
2022/12/22 10:47:19;;;;;;;17.70;6.60;;;;;;;6.88;98.30;99394.27;103283;1282;22461;-60
2022/12/22 10:49:55;;;;;;;19.80;6.00;;;;;;;6.93;98.44;99395.14;103060;1282;25812;-60
2022/12/22 10:52:31;;;;;;;16.30;6.00;;;;;;;6.98;98.39;99392.73;103308;1282;22508;-62
2022/12/22 10:55:17;;;;;;;18.60;6.70;;;;;;;7.02;98.62;99384.49;103200;1282;24265;-61
2022/12/22 10:57:48;;;;;;;17.30;4.70;;;;;;;7.06;98.62;99380.42;103120;1282;22497;-60
2022/12/22 11:00:33;;;;;;;18.90;6.50;;;;;;;7.08;98.46;99382.47;102817;1282;24023;-60
2022/12/22 11:03:07;;;;;;;21.50;7.20;;;;;;;7.09;98.65;99373.07;102864;1306;25296;-63
2022/12/22 11:05:40;;;;;;;21.80;7.50;;;;;;;7.10;98.59;99376.21;103265;1291;23795;-59
2022/12/22 11:08:19;;;;;;;19.10;8.00;;;;;;;7.10;98.69;99372.43;103125;1282;23246;-60
2022/12/22 11:10:57;;;;;;;26.10;12.10;;;;;;;7.08;98.37;99374.86;102910;1282;25504;-59
2022/12/22 11:13:57;;;;;;;34.00;15.80;;;;;;;7.01;98.02;99369.44;103125;1306;22488;-58
2022/12/22 11:16:35;;;;;;;29.10;11.70;;;;;;;6.95;98.00;99364.61;104692;1281;22565;-60
2022/12/22 11:19:20;;;;;;;28.00;11.50;;;;;;;6.87;97.82;99359.83;102669;1285;22684;-59
2022/12/22 11:21:58;;;;;;;29.10;12.80;;;;;;;6.78;97.79;99352.84;102488;1285;22503;-59
2022/12/22 11:24:46;;;;;;;26.90;11.60;;;;;;;6.72;97.96;99356.25;102828;1284;22502;-59
2022/12/22 11:27:35;;;;;;;29.90;14.10;;;;;;;6.67;97.94;99352.11;102708;1278;22495;-59
2022/12/22 11:30:12;;;;;;;32.10;15.00;;;;;;;6.63;97.99;99351.48;102708;1285;22465;-60
2022/12/22 11:33:07;;;;;;;33.30;17.20;;;;;;;6.60;98.08;99350.64;102653;1278;24263;-59
2022/12/22 11:35:52;;;;;;;33.60;17.60;;;;;;;6.56;98.19;99351.98;106448;1281;22201;-60
2022/12/22 11:38:36;;;;;;;44.50;21.40;;;;;;;6.54;98.35;99345.60;102736;1287;24413;-60
2022/12/22 11:41:21;;;;;;;38.20;20.20;;;;;;;6.54;98.38;99347.98;104204;1284;22686;-60
2022/12/22 11:44:06;;;;;;;37.80;20.50;;;;;;;6.53;98.44;99345.58;102721;1285;24283;-60
2022/12/22 11:46:47;;;;;;;45.30;22.00;;;;;;;6.54;98.51;99334.84;104056;1287;22561;-59
2022/12/22 11:49:42;;;;;;;42.60;21.20;;;;;;;6.56;98.66;99331.20;102961;1287;25364;-59
2022/12/22 11:52:31;;;;;;;39.50;19.40;;;;;;;6.56;98.58;99331.42;102943;1277;24419;-59
2022/12/22 11:55:12;;;;;;;36.20;17.60;;;;;;;6.57;98.76;99321.80;103134;1274;22482;-60
2022/12/22 11:57:53;;;;;;;36.70;17.00;;;;;;;6.57;98.76;99309.59;103313;1282;22590;-60
2022/12/22 12:00:28;;;;;;;31.20;14.50;;;;;;;6.58;98.97;99306.84;103308;1275;22847;-63
2022/12/22 12:03:15;;;;;;;30.70;12.30;;;;;;;6.60;99.33;99303.10;106778;1297;22195;-62
2022/12/22 12:06:16;;;;;;;24.70;9.40;;;;;;;6.64;99.47;99292.60;103211;1292;25534;-58
2022/12/22 12:09:02;;;;;;;21.50;8.70;;;;;;;6.68;99.80;99290.15;103057;1282;23806;-58
2022/12/22 12:11:42;;;;;;;24.90;8.40;;;;;;;6.71;99.58;99287.60;103614;1305;22496;-59
2022/12/22 12:14:23;;;;;;;19.10;8.20;;;;;;;6.75;99.57;99282.91;103682;1274;23903;-61
2022/12/22 12:16:59;;;;;;;23.00;7.70;;;;;;;6.75;99.60;99279.54;103182;1274;22467;-58
2022/12/22 12:20:13;;;;;;;17.40;6.60;;;;;;;6.77;99.52;99276.52;102975;1275;25238;-58
2022/12/22 12:22:58;;;;;;;20.60;6.80;;;;;;;6.79;99.48;99272.51;102673;1288;24531;-58
2022/12/22 12:25:38;;;;;;;19.60;7.20;;;;;;;6.80;99.44;99263.80;102659;1282;23248;-59
2022/12/22 12:28:19;;;;;;;19.30;4.50;;;;;;;6.81;99.33;99254.02;103672;1287;22595;-58
2022/12/22 12:30:56;;;;;;;17.60;6.60;;;;;;;6.80;99.20;99246.86;103414;1306;22475;-57
2022/12/22 12:33:46;;;;;;;15.30;5.10;;;;;;;6.81;99.34;99242.38;103543;1286;22517;-58
2022/12/22 12:36:27;;;;;;;15.20;4.70;;;;;;;6.83;99.24;99253.62;103316;1297;25103;-60
2022/12/22 12:39:09;;;;;;;13.70;4.60;;;;;;;6.86;99.29;99255.35;102625;1287;22592;-58
2022/12/22 12:41:53;;;;;;;18.20;6.00;;;;;;;6.91;99.29;99255.41;102532;1288;22471;-59
2022/12/22 12:44:28;;;;;;;13.30;4.60;;;;;;;6.95;99.27;99253.82;102634;1288;22604;-60
2022/12/22 12:47:23;;;;;;;14.70;5.10;;;;;;;6.97;99.19;99248.63;102477;1288;25515;-59
2022/12/22 12:50:25;;;;;;;16.40;5.50;;;;;;;7.00;99.02;99250.17;102747;1310;22620;-60
2022/12/22 12:53:07;;;;;;;16.90;5.20;;;;;;;7.00;98.88;99253.77;101629;1281;1360398;-60
2022/12/22 12:55:55;;;;;;;18.70;6.60;;;;;;;7.02;98.97;99250.11;102651;1288;24339;-58
2022/12/22 12:58:58;;;;;;;24.40;8.40;;;;;;;7.03;98.90;99249.53;102754;1275;24291;-57
2022/12/22 13:01:56;;;;;;;21.90;8.00;;;;;;;7.04;98.84;99255.60;103534;1275;23016;-58
2022/12/22 13:05:03;;;;;;;24.80;11.30;;;;;;;7.04;98.91;99256.45;104482;1278;25342;-59
2022/12/22 13:08:15;;;;;;;30.30;12.60;;;;;;;7.05;98.95;99258.60;102815;1312;22446;-59
2022/12/22 13:11:06;;;;;;;36.10;15.80;;;;;;;7.07;98.95;99255.40;102737;1288;25658;-59
2022/12/22 13:13:52;;;;;;;35.00;14.20;;;;;;;7.08;98.90;99257.34;102590;1280;22487;-57
2022/12/22 13:16:27;;;;;;;31.00;13.60;;;;;;;7.10;99.12;99247.63;102716;1297;22481;-58
2022/12/22 13:19:03;;;;;;;22.70;9.70;;;;;;;7.11;98.99;99240.24;102618;1294;22582;-58
2022/12/22 13:21:45;;;;;;;30.80;12.00;;;;;;;7.10;98.73;99241.69;102813;1311;24317;-56
2022/12/22 13:24:31;;;;;;;30.00;13.20;;;;;;;7.06;98.63;99240.70;102691;1297;24346;-59
2022/12/22 13:27:10;;;;;;;29.10;13.10;;;;;;;7.04;98.60;99243.20;103010;1298;22950;-58
2022/12/22 13:29:47;;;;;;;35.10;15.10;;;;;;;7.02;98.44;99240.91;102717;1287;22576;-59
2022/12/22 13:32:23;;;;;;;32.80;14.10;;;;;;;7.00;98.40;99243.08;102680;1289;22499;-58
2022/12/22 13:35:07;;;;;;;29.10;12.30;;;;;;;6.98;98.22;99240.27;102602;1282;22530;-59
2022/12/22 13:37:45;;;;;;;27.90;11.80;;;;;;;6.98;98.47;99238.05;102691;1304;25369;-58
2022/12/22 13:40:22;;;;;;;27.10;10.90;;;;;;;6.98;98.43;99231.70;105629;1282;24330;-59
2022/12/22 13:42:57;;;;;;;24.80;10.30;;;;;;;6.98;98.52;99233.61;103133;1291;25251;-59
2022/12/22 13:45:37;;;;;;;27.70;11.90;;;;;;;6.99;98.46;99230.34;103645;1283;22480;-61
2022/12/22 13:48:16;;;;;;;28.70;11.60;;;;;;;6.97;98.51;99229.74;105572;1275;25384;-58
2022/12/22 13:50:51;;;;;;;24.90;10.60;;;;;;;6.96;98.43;99228.48;103304;1281;22599;-58
2022/12/22 13:53:30;;;;;;;23.30;10.00;;;;;;;6.95;98.35;99220.98;103255;1305;24261;-58
2022/12/22 13:56:02;;;;;;;23.90;9.10;;;;;;;6.93;98.39;99225.86;103399;1282;23330;-59
2022/12/22 13:58:39;;;;;;;23.30;10.70;;;;;;;6.94;98.37;99224.40;103248;1284;22536;-59
2022/12/22 14:01:19;;;;;;;21.70;9.10;;;;;;;6.94;98.59;99218.11;103246;1305;23565;-59
2022/12/22 14:03:56;;;;;;;22.80;10.00;;;;;;;6.95;98.54;99215.04;103087;1274;24478;-58
2022/12/22 14:06:32;;;;;;;23.30;8.60;;;;;;;6.96;98.58;99215.31;103233;1303;24372;-59
2022/12/22 14:09:18;;;;;;;17.80;5.40;;;;;;;6.97;98.55;99210.13;103104;1274;22470;-58
2022/12/22 14:11:54;;;;;;;16.80;5.70;;;;;;;6.97;98.49;99205.79;103004;1282;24404;-58
2022/12/22 14:14:35;;;;;;;16.20;4.80;;;;;;;6.98;98.56;99203.23;103230;1281;24256;-59
2022/12/22 14:17:17;;;;;;;13.70;3.90;;;;;;;7.00;98.46;99206.48;103166;1281;22599;-56
2022/12/22 14:19:52;;;;;;;11.60;2.90;;;;;;;7.01;98.56;99203.39;103226;1303;22752;-59
2022/12/22 14:22:27;;;;;;;15.20;4.40;;;;;;;7.03;98.43;99201.86;103359;1281;22459;-60
2022/12/22 14:25:03;;;;;;;12.40;3.60;;;;;;;7.06;98.52;99203.15;103089;1306;22948;-59
2022/12/22 14:27:38;;;;;;;12.50;4.40;;;;;;;7.07;98.36;99206.07;103197;1282;22489;-58
2022/12/22 14:30:18;;;;;;;17.40;4.70;;;;;;;7.09;98.26;99212.29;105731;1275;22484;-59
2022/12/22 14:32:53;;;;;;;14.80;5.00;;;;;;;7.12;98.25;99206.69;103132;1274;25507;-59
2022/12/22 14:35:30;;;;;;;13.80;3.80;;;;;;;7.13;98.28;99208.84;103577;1292;24289;-60
2022/12/22 14:38:23;;;;;;;14.60;3.90;;;;;;;7.14;98.29;99208.64;105937;1303;22550;-60
2022/12/22 14:40:56;;;;;;;21.00;7.50;;;;;;;7.15;98.14;99209.52;103465;1282;22464;-61
2022/12/22 14:43:31;;;;;;;23.30;8.50;;;;;;;7.16;98.23;99210.14;103410;1282;22469;-61
2022/12/22 14:46:09;;;;;;;24.00;8.80;;;;;;;7.17;98.14;99212.42;103449;1288;22547;-60
2022/12/22 14:48:50;;;;;;;22.90;8.10;;;;;;;7.18;98.15;99212.39;103461;1304;22459;-60
2022/12/22 14:51:22;;;;;;;19.30;7.90;;;;;;;7.17;98.09;99208.39;103827;1298;23969;-60
2022/12/22 14:53:55;;;;;;;18.50;7.00;;;;;;;7.17;98.12;99206.47;103438;1305;25344;-62
2022/12/22 14:56:28;;;;;;;19.80;7.20;;;;;;;7.17;98.06;99215.11;103534;1275;22485;-60
2022/12/22 14:59:22;;;;;;;19.30;7.70;;;;;;;7.18;98.12;99217.23;103330;1282;22526;-59
2022/12/22 15:02:01;;;;;;;16.60;4.80;;;;;;;7.19;98.08;99216.10;103186;1306;22594;-59
2022/12/22 15:04:33;;;;;;;17.00;5.60;;;;;;;7.21;98.20;99211.95;103266;1298;25374;-59
2022/12/22 15:07:16;;;;;;;14.20;6.10;;;;;;;7.23;98.16;99214.95;103183;1289;24259;-60
2022/12/22 15:09:48;;;;;;;14.30;4.70;;;;;;;7.26;98.23;99214.54;103320;1282;24033;-59
2022/12/22 15:12:20;;;;;;;14.50;4.30;;;;;;;7.27;98.12;99217.48;103333;1282;22583;-59
2022/12/22 15:14:52;;;;;;;14.20;4.10;;;;;;;7.29;98.28;99220.64;104940;1275;22667;-60
2022/12/22 15:17:25;;;;;;;17.90;4.20;;;;;;;7.30;98.29;99222.63;103262;1282;25394;-59
2022/12/22 15:20:00;;;;;;;18.60;6.40;;;;;;;7.30;98.30;99222.06;103337;1282;22477;-59
2022/12/22 15:22:33;;;;;;;19.60;5.70;;;;;;;7.30;98.24;99219.45;103283;1282;22465;-60
2022/12/22 15:25:06;;;;;;;16.30;5.00;;;;;;;7.30;98.32;99217.27;103313;1306;25356;-58
2022/12/22 15:27:38;;;;;;;15.80;5.20;;;;;;;7.30;98.34;99219.95;103473;1282;22507;-62
2022/12/22 15:30:13;;;;;;;15.70;5.30;;;;;;;7.30;98.38;99216.86;103348;1306;22747;-59
2022/12/22 15:32:46;;;;;;;15.80;5.50;;;;;;;7.30;98.36;99216.33;103340;1281;24461;-60
2022/12/22 15:35:26;;;;;;;17.80;5.90;;;;;;;7.30;98.47;99217.48;103243;1282;22471;-60
2022/12/22 15:37:58;;;;;;;22.60;9.00;;;;;;;7.29;98.48;99213.79;103276;1288;26004;-58
2022/12/22 15:40:30;;;;;;;23.20;10.40;;;;;;;7.28;98.60;99216.58;103322;1275;22833;-60
2022/12/22 15:43:02;;;;;;;28.00;12.20;;;;;;;7.28;98.73;99213.35;103299;1306;22940;-59